sensor_id;sensor_type;location;lat;lon;timestamp;P1;durP1;ratioP1;P2;durP2;ratioP2
16480;SDS011;44634;54.110;12.138;2022-10-16T00:01:39;4.90;;;4.60;;
16480;SDS011;44634;54.110;12.138;2022-10-16T00:04:09;5.10;;;4.80;;
16480;SDS011;44634;54.110;12.138;2022-10-16T00:06:37;5.67;;;5.37;;
16480;SDS011;44634;54.110;12.138;2022-10-16T00:09:05;6.03;;;5.63;;
16480;SDS011;44634;54.110;12.138;2022-10-16T00:11:34;5.47;;;5.17;;
16480;SDS011;44634;54.110;12.138;2022-10-16T00:14:06;6.30;;;5.80;;
16480;SDS011;44634;54.110;12.138;2022-10-16T00:16:36;6.03;;;5.53;;
16480;SDS011;44634;54.110;12.138;2022-10-16T00:19:04;5.73;;;5.33;;
16480;SDS011;44634;54.110;12.138;2022-10-16T00:21:32;6.33;;;5.73;;
16480;SDS011;44634;54.110;12.138;2022-10-16T00:24:01;5.90;;;5.50;;
16480;SDS011;44634;54.110;12.138;2022-10-16T00:26:31;6.83;;;6.33;;
16480;SDS011;44634;54.110;12.138;2022-10-16T00:29:01;9.07;;;6.80;;
16480;SDS011;44634;54.110;12.138;2022-10-16T00:31:31;7.80;;;6.40;;
16480;SDS011;44634;54.110;12.138;2022-10-16T00:33:59;6.50;;;5.90;;
16480;SDS011;44634;54.110;12.138;2022-10-16T00:36:27;6.30;;;5.90;;
16480;SDS011;44634;54.110;12.138;2022-10-16T00:38:55;6.77;;;6.20;;
16480;SDS011;44634;54.110;12.138;2022-10-16T00:41:30;6.57;;;5.97;;
16480;SDS011;44634;54.110;12.138;2022-10-16T00:43:59;6.53;;;6.10;;
16480;SDS011;44634;54.110;12.138;2022-10-16T00:46:28;6.63;;;6.13;;
16480;SDS011;44634;54.110;12.138;2022-10-16T00:49:02;6.70;;;6.10;;
16480;SDS011;44634;54.110;12.138;2022-10-16T00:51:33;6.43;;;6.00;;
16480;SDS011;44634;54.110;12.138;2022-10-16T00:54:02;6.70;;;6.13;;
16480;SDS011;44634;54.110;12.138;2022-10-16T00:56:33;7.40;;;6.80;;
16480;SDS011;44634;54.110;12.138;2022-10-16T00:59:01;7.30;;;6.23;;
16480;SDS011;44634;54.110;12.138;2022-10-16T01:01:35;7.00;;;6.43;;
16480;SDS011;44634;54.110;12.138;2022-10-16T01:04:03;7.00;;;6.40;;
16480;SDS011;44634;54.110;12.138;2022-10-16T01:06:32;6.63;;;6.13;;
16480;SDS011;44634;54.110;12.138;2022-10-16T01:09:11;7.93;;;7.23;;
16480;SDS011;44634;54.110;12.138;2022-10-16T01:11:45;7.03;;;6.43;;
16480;SDS011;44634;54.110;12.138;2022-10-16T01:14:21;7.17;;;6.67;;
16480;SDS011;44634;54.110;12.138;2022-10-16T01:17:06;7.67;;;7.07;;
16480;SDS011;44634;54.110;12.138;2022-10-16T01:19:47;7.37;;;6.83;;
16480;SDS011;44634;54.110;12.138;2022-10-16T01:22:31;8.90;;;6.73;;
16480;SDS011;44634;54.110;12.138;2022-10-16T01:25:05;8.07;;;7.37;;
16480;SDS011;44634;54.110;12.138;2022-10-16T01:27:40;7.50;;;6.80;;
16480;SDS011;44634;54.110;12.138;2022-10-16T01:30:13;7.07;;;6.60;;
16480;SDS011;44634;54.110;12.138;2022-10-16T01:32:45;7.77;;;7.07;;
16480;SDS011;44634;54.110;12.138;2022-10-16T01:35:18;7.63;;;6.93;;
16480;SDS011;44634;54.110;12.138;2022-10-16T01:37:51;7.23;;;6.73;;
16480;SDS011;44634;54.110;12.138;2022-10-16T01:40:23;8.23;;;7.63;;
16480;SDS011;44634;54.110;12.138;2022-10-16T01:42:55;7.47;;;6.77;;
16480;SDS011;44634;54.110;12.138;2022-10-16T01:45:27;7.50;;;7.00;;
16480;SDS011;44634;54.110;12.138;2022-10-16T01:47:57;8.67;;;7.87;;
16480;SDS011;44634;54.110;12.138;2022-10-16T01:50:30;7.90;;;7.20;;
16480;SDS011;44634;54.110;12.138;2022-10-16T01:53:00;8.60;;;7.93;;
16480;SDS011;44634;54.110;12.138;2022-10-16T01:55:30;8.20;;;7.60;;
16480;SDS011;44634;54.110;12.138;2022-10-16T01:58:02;8.70;;;7.90;;
16480;SDS011;44634;54.110;12.138;2022-10-16T02:00:32;8.33;;;7.73;;
16480;SDS011;44634;54.110;12.138;2022-10-16T02:03:01;8.17;;;7.63;;
16480;SDS011;44634;54.110;12.138;2022-10-16T02:05:30;8.17;;;7.47;;
16480;SDS011;44634;54.110;12.138;2022-10-16T02:08:01;9.13;;;8.37;;
16480;SDS011;44634;54.110;12.138;2022-10-16T02:10:31;8.97;;;8.27;;
16480;SDS011;44634;54.110;12.138;2022-10-16T02:13:01;9.20;;;8.30;;
16480;SDS011;44634;54.110;12.138;2022-10-16T02:15:35;11.03;;;8.73;;
16480;SDS011;44634;54.110;12.138;2022-10-16T02:18:03;10.17;;;8.77;;
16480;SDS011;44634;54.110;12.138;2022-10-16T02:20:32;10.43;;;9.17;;
16480;SDS011;44634;54.110;12.138;2022-10-16T02:23:03;11.80;;;8.63;;
16480;SDS011;44634;54.110;12.138;2022-10-16T02:25:32;9.90;;;9.10;;
16480;SDS011;44634;54.110;12.138;2022-10-16T02:28:07;9.20;;;8.43;;
16480;SDS011;44634;54.110;12.138;2022-10-16T02:30:40;9.43;;;8.53;;
16480;SDS011;44634;54.110;12.138;2022-10-16T02:33:12;8.57;;;7.67;;
16480;SDS011;44634;54.110;12.138;2022-10-16T02:35:42;8.70;;;7.57;;
16480;SDS011;44634;54.110;12.138;2022-10-16T02:38:14;8.07;;;6.77;;
16480;SDS011;44634;54.110;12.138;2022-10-16T02:40:43;6.40;;;5.90;;
16480;SDS011;44634;54.110;12.138;2022-10-16T02:43:12;6.93;;;5.93;;
16480;SDS011;44634;54.110;12.138;2022-10-16T02:45:40;6.40;;;5.80;;
16480;SDS011;44634;54.110;12.138;2022-10-16T02:48:08;5.77;;;5.37;;
16480;SDS011;44634;54.110;12.138;2022-10-16T02:50:36;6.33;;;5.77;;
16480;SDS011;44634;54.110;12.138;2022-10-16T02:53:04;6.13;;;5.67;;
16480;SDS011;44634;54.110;12.138;2022-10-16T02:55:31;6.23;;;5.63;;
16480;SDS011;44634;54.110;12.138;2022-10-16T02:57:59;6.50;;;5.90;;
16480;SDS011;44634;54.110;12.138;2022-10-16T03:00:28;6.17;;;5.67;;
16480;SDS011;44634;54.110;12.138;2022-10-16T03:02:56;6.67;;;6.00;;
16480;SDS011;44634;54.110;12.138;2022-10-16T03:05:24;7.43;;;6.83;;
16480;SDS011;44634;54.110;12.138;2022-10-16T03:07:52;7.00;;;6.50;;
16480;SDS011;44634;54.110;12.138;2022-10-16T03:10:19;7.60;;;6.77;;
16480;SDS011;44634;54.110;12.138;2022-10-16T03:12:48;6.80;;;6.10;;
16480;SDS011;44634;54.110;12.138;2022-10-16T03:15:16;7.00;;;6.20;;
16480;SDS011;44634;54.110;12.138;2022-10-16T03:17:45;6.77;;;6.27;;
16480;SDS011;44634;54.110;12.138;2022-10-16T03:20:13;6.30;;;5.67;;
16480;SDS011;44634;54.110;12.138;2022-10-16T03:22:41;6.93;;;6.03;;
16480;SDS011;44634;54.110;12.138;2022-10-16T03:25:09;5.77;;;5.07;;
16480;SDS011;44634;54.110;12.138;2022-10-16T03:27:37;6.20;;;5.70;;
16480;SDS011;44634;54.110;12.138;2022-10-16T03:30:05;7.50;;;6.23;;
16480;SDS011;44634;54.110;12.138;2022-10-16T03:32:34;9.57;;;6.33;;
16480;SDS011;44634;54.110;12.138;2022-10-16T03:35:04;7.77;;;6.50;;
16480;SDS011;44634;54.110;12.138;2022-10-16T03:37:32;6.40;;;5.80;;
16480;SDS011;44634;54.110;12.138;2022-10-16T03:40:00;6.50;;;6.00;;
16480;SDS011;44634;54.110;12.138;2022-10-16T03:42:27;6.57;;;5.97;;
16480;SDS011;44634;54.110;12.138;2022-10-16T03:44:55;6.70;;;5.87;;
16480;SDS011;44634;54.110;12.138;2022-10-16T03:47:23;6.13;;;5.53;;
16480;SDS011;44634;54.110;12.138;2022-10-16T03:49:51;6.43;;;5.93;;
16480;SDS011;44634;54.110;12.138;2022-10-16T03:52:20;6.77;;;6.17;;
16480;SDS011;44634;54.110;12.138;2022-10-16T03:54:48;5.90;;;5.40;;
16480;SDS011;44634;54.110;12.138;2022-10-16T03:57:15;6.93;;;5.57;;
16480;SDS011;44634;54.110;12.138;2022-10-16T03:59:43;9.83;;;5.90;;
16480;SDS011;44634;54.110;12.138;2022-10-16T04:02:11;8.53;;;6.23;;
16480;SDS011;44634;54.110;12.138;2022-10-16T04:04:39;5.70;;;5.20;;
16480;SDS011;44634;54.110;12.138;2022-10-16T04:07:07;5.77;;;5.27;;
16480;SDS011;44634;54.110;12.138;2022-10-16T04:09:36;5.37;;;4.97;;
16480;SDS011;44634;54.110;12.138;2022-10-16T04:12:03;5.23;;;4.73;;
16480;SDS011;44634;54.110;12.138;2022-10-16T04:14:31;6.47;;;5.20;;
16480;SDS011;44634;54.110;12.138;2022-10-16T04:16:59;5.73;;;5.33;;
16480;SDS011;44634;54.110;12.138;2022-10-16T04:19:26;5.47;;;4.90;;
16480;SDS011;44634;54.110;12.138;2022-10-16T04:21:54;4.83;;;4.53;;
16480;SDS011;44634;54.110;12.138;2022-10-16T04:24:22;6.83;;;4.87;;
16480;SDS011;44634;54.110;12.138;2022-10-16T04:26:51;5.33;;;4.77;;
16480;SDS011;44634;54.110;12.138;2022-10-16T04:29:19;5.70;;;4.77;;
16480;SDS011;44634;54.110;12.138;2022-10-16T04:31:47;5.13;;;4.70;;
16480;SDS011;44634;54.110;12.138;2022-10-16T04:34:14;5.30;;;4.70;;
16480;SDS011;44634;54.110;12.138;2022-10-16T04:36:42;8.90;;;5.20;;
16480;SDS011;44634;54.110;12.138;2022-10-16T04:39:10;5.40;;;4.90;;
16480;SDS011;44634;54.110;12.138;2022-10-16T04:41:38;6.33;;;4.93;;
16480;SDS011;44634;54.110;12.138;2022-10-16T04:44:07;5.63;;;4.63;;
16480;SDS011;44634;54.110;12.138;2022-10-16T04:46:36;4.90;;;4.60;;
16480;SDS011;44634;54.110;12.138;2022-10-16T04:49:04;5.20;;;4.77;;
16480;SDS011;44634;54.110;12.138;2022-10-16T04:51:31;5.33;;;4.93;;
16480;SDS011;44634;54.110;12.138;2022-10-16T04:53:59;4.90;;;4.50;;
16480;SDS011;44634;54.110;12.138;2022-10-16T04:56:27;4.93;;;4.53;;
16480;SDS011;44634;54.110;12.138;2022-10-16T04:58:55;6.03;;;4.57;;
16480;SDS011;44634;54.110;12.138;2022-10-16T05:01:24;6.60;;;4.60;;
16480;SDS011;44634;54.110;12.138;2022-10-16T05:03:51;4.80;;;4.50;;
16480;SDS011;44634;54.110;12.138;2022-10-16T05:06:19;4.70;;;4.30;;
16480;SDS011;44634;54.110;12.138;2022-10-16T05:08:47;4.10;;;3.80;;
16480;SDS011;44634;54.110;12.138;2022-10-16T05:11:14;5.27;;;4.37;;
16480;SDS011;44634;54.110;12.138;2022-10-16T05:13:42;4.03;;;3.63;;
16480;SDS011;44634;54.110;12.138;2022-10-16T05:16:10;5.83;;;4.13;;
16480;SDS011;44634;54.110;12.138;2022-10-16T05:18:39;4.67;;;4.20;;
16480;SDS011;44634;54.110;12.138;2022-10-16T05:21:07;4.43;;;3.90;;
16480;SDS011;44634;54.110;12.138;2022-10-16T05:23:35;3.87;;;3.53;;
16480;SDS011;44634;54.110;12.138;2022-10-16T05:26:02;5.80;;;3.90;;
16480;SDS011;44634;54.110;12.138;2022-10-16T05:28:30;5.20;;;4.03;;
16480;SDS011;44634;54.110;12.138;2022-10-16T05:31:03;5.33;;;3.93;;
16480;SDS011;44634;54.110;12.138;2022-10-16T05:33:31;4.10;;;3.70;;
16480;SDS011;44634;54.110;12.138;2022-10-16T05:36:02;4.23;;;3.60;;
16480;SDS011;44634;54.110;12.138;2022-10-16T05:38:30;3.47;;;3.20;;
16480;SDS011;44634;54.110;12.138;2022-10-16T05:40:58;4.93;;;3.50;;
16480;SDS011;44634;54.110;12.138;2022-10-16T05:43:26;3.90;;;3.60;;
16480;SDS011;44634;54.110;12.138;2022-10-16T05:45:55;4.37;;;2.93;;
16480;SDS011;44634;54.110;12.138;2022-10-16T05:48:23;5.80;;;2.97;;
16480;SDS011;44634;54.110;12.138;2022-10-16T05:50:58;4.80;;;3.00;;
16480;SDS011;44634;54.110;12.138;2022-10-16T05:53:28;4.93;;;3.23;;
16480;SDS011;44634;54.110;12.138;2022-10-16T05:55:57;3.73;;;3.00;;
16480;SDS011;44634;54.110;12.138;2022-10-16T05:58:28;4.13;;;3.03;;
16480;SDS011;44634;54.110;12.138;2022-10-16T06:00:56;3.30;;;3.10;;
16480;SDS011;44634;54.110;12.138;2022-10-16T06:03:25;4.97;;;3.27;;
16480;SDS011;44634;54.110;12.138;2022-10-16T06:05:57;4.13;;;2.53;;
16480;SDS011;44634;54.110;12.138;2022-10-16T06:08:25;3.43;;;2.90;;
16480;SDS011;44634;54.110;12.138;2022-10-16T06:11:01;3.57;;;2.80;;
16480;SDS011;44634;54.110;12.138;2022-10-16T06:13:30;3.23;;;2.80;;
16480;SDS011;44634;54.110;12.138;2022-10-16T06:15:58;3.03;;;2.53;;
16480;SDS011;44634;54.110;12.138;2022-10-16T06:18:27;3.00;;;2.67;;
16480;SDS011;44634;54.110;12.138;2022-10-16T06:20:56;4.90;;;3.03;;
16480;SDS011;44634;54.110;12.138;2022-10-16T06:23:25;2.87;;;2.60;;
16480;SDS011;44634;54.110;12.138;2022-10-16T06:25:53;2.70;;;2.53;;
16480;SDS011;44634;54.110;12.138;2022-10-16T06:28:22;2.80;;;2.57;;
16480;SDS011;44634;54.110;12.138;2022-10-16T06:30:58;5.43;;;2.90;;
16480;SDS011;44634;54.110;12.138;2022-10-16T06:33:32;5.80;;;2.60;;
16480;SDS011;44634;54.110;12.138;2022-10-16T06:36:01;3.10;;;2.63;;
16480;SDS011;44634;54.110;12.138;2022-10-16T06:38:30;2.73;;;2.23;;
16480;SDS011;44634;54.110;12.138;2022-10-16T06:40:58;2.93;;;2.60;;
16480;SDS011;44634;54.110;12.138;2022-10-16T06:43:27;4.53;;;2.70;;
16480;SDS011;44634;54.110;12.138;2022-10-16T06:45:59;5.33;;;2.43;;
16480;SDS011;44634;54.110;12.138;2022-10-16T06:48:27;2.80;;;2.60;;
16480;SDS011;44634;54.110;12.138;2022-10-16T06:50:56;2.70;;;2.50;;
16480;SDS011;44634;54.110;12.138;2022-10-16T06:53:26;2.43;;;2.20;;
16480;SDS011;44634;54.110;12.138;2022-10-16T06:55:54;5.53;;;2.43;;
16480;SDS011;44634;54.110;12.138;2022-10-16T06:58:23;2.00;;;2.00;;
16480;SDS011;44634;54.110;12.138;2022-10-16T07:00:56;4.20;;;2.40;;
16480;SDS011;44634;54.110;12.138;2022-10-16T07:03:24;3.43;;;2.80;;
16480;SDS011;44634;54.110;12.138;2022-10-16T07:05:51;2.80;;;2.17;;
16480;SDS011;44634;54.110;12.138;2022-10-16T07:08:20;2.70;;;2.20;;
16480;SDS011;44634;54.110;12.138;2022-10-16T07:10:57;2.33;;;2.07;;
16480;SDS011;44634;54.110;12.138;2022-10-16T07:13:50;2.07;;;1.97;;
16480;SDS011;44634;54.110;12.138;2022-10-16T07:16:23;2.40;;;2.20;;
16480;SDS011;44634;54.110;12.138;2022-10-16T07:18:53;2.33;;;2.13;;
16480;SDS011;44634;54.110;12.138;2022-10-16T07:21:25;2.37;;;2.13;;
16480;SDS011;44634;54.110;12.138;2022-10-16T07:23:55;3.00;;;2.20;;
16480;SDS011;44634;54.110;12.138;2022-10-16T07:26:24;2.30;;;1.87;;
16480;SDS011;44634;54.110;12.138;2022-10-16T07:28:53;2.50;;;2.30;;
16480;SDS011;44634;54.110;12.138;2022-10-16T07:31:23;3.33;;;2.10;;
16480;SDS011;44634;54.110;12.138;2022-10-16T07:33:53;5.40;;;2.30;;
16480;SDS011;44634;54.110;12.138;2022-10-16T07:36:22;1.80;;;1.70;;
16480;SDS011;44634;54.110;12.138;2022-10-16T07:38:52;3.53;;;2.00;;
16480;SDS011;44634;54.110;12.138;2022-10-16T07:41:25;3.70;;;1.80;;
16480;SDS011;44634;54.110;12.138;2022-10-16T07:43:54;2.30;;;2.10;;
16480;SDS011;44634;54.110;12.138;2022-10-16T07:46:25;1.77;;;1.67;;
16480;SDS011;44634;54.110;12.138;2022-10-16T07:48:53;1.70;;;1.60;;
16480;SDS011;44634;54.110;12.138;2022-10-16T07:51:21;2.77;;;1.70;;
16480;SDS011;44634;54.110;12.138;2022-10-16T07:53:50;2.73;;;1.73;;
16480;SDS011;44634;54.110;12.138;2022-10-16T07:56:23;2.60;;;1.70;;
16480;SDS011;44634;54.110;12.138;2022-10-16T07:58:51;3.70;;;1.70;;
16480;SDS011;44634;54.110;12.138;2022-10-16T08:01:20;3.60;;;1.60;;
16480;SDS011;44634;54.110;12.138;2022-10-16T08:03:49;2.00;;;1.90;;
16480;SDS011;44634;54.110;12.138;2022-10-16T08:06:19;2.20;;;1.70;;
16480;SDS011;44634;54.110;12.138;2022-10-16T08:08:53;2.00;;;1.50;;
16480;SDS011;44634;54.110;12.138;2022-10-16T08:11:21;1.67;;;1.57;;
16480;SDS011;44634;54.110;12.138;2022-10-16T08:13:49;1.63;;;1.53;;
16480;SDS011;44634;54.110;12.138;2022-10-16T08:16:17;1.53;;;1.43;;
16480;SDS011;44634;54.110;12.138;2022-10-16T08:18:45;3.23;;;1.97;;
16480;SDS011;44634;54.110;12.138;2022-10-16T08:21:15;1.60;;;1.50;;
16480;SDS011;44634;54.110;12.138;2022-10-16T08:23:46;2.13;;;1.67;;
16480;SDS011;44634;54.110;12.138;2022-10-16T08:26:22;2.40;;;1.87;;
16480;SDS011;44634;54.110;12.138;2022-10-16T08:28:50;2.50;;;1.80;;
16480;SDS011;44634;54.110;12.138;2022-10-16T08:31:18;2.17;;;1.70;;
16480;SDS011;44634;54.110;12.138;2022-10-16T08:33:46;2.30;;;2.10;;
16480;SDS011;44634;54.110;12.138;2022-10-16T08:36:15;2.80;;;1.57;;
16480;SDS011;44634;54.110;12.138;2022-10-16T08:38:44;2.63;;;1.70;;
16480;SDS011;44634;54.110;12.138;2022-10-16T08:41:32;3.10;;;1.93;;
16480;SDS011;44634;54.110;12.138;2022-10-16T08:44:28;2.00;;;1.73;;
16480;SDS011;44634;54.110;12.138;2022-10-16T08:47:11;2.60;;;1.77;;
16480;SDS011;44634;54.110;12.138;2022-10-16T08:49:47;1.83;;;1.73;;
16480;SDS011;44634;54.110;12.138;2022-10-16T08:52:25;1.83;;;1.77;;
16480;SDS011;44634;54.110;12.138;2022-10-16T08:54:56;2.73;;;1.67;;
16480;SDS011;44634;54.110;12.138;2022-10-16T08:57:24;4.80;;;1.97;;
16480;SDS011;44634;54.110;12.138;2022-10-16T08:59:53;5.30;;;1.97;;
16480;SDS011;44634;54.110;12.138;2022-10-16T09:02:28;4.53;;;1.97;;
16480;SDS011;44634;54.110;12.138;2022-10-16T09:05:03;1.80;;;1.70;;
16480;SDS011;44634;54.110;12.138;2022-10-16T09:07:49;2.60;;;1.80;;
16480;SDS011;44634;54.110;12.138;2022-10-16T09:10:35;3.77;;;2.10;;
16480;SDS011;44634;54.110;12.138;2022-10-16T09:13:11;5.20;;;1.90;;
16480;SDS011;44634;54.110;12.138;2022-10-16T09:15:49;2.57;;;1.70;;
16480;SDS011;44634;54.110;12.138;2022-10-16T09:18:25;4.17;;;1.97;;
16480;SDS011;44634;54.110;12.138;2022-10-16T09:21:02;4.00;;;1.87;;
16480;SDS011;44634;54.110;12.138;2022-10-16T09:23:38;2.97;;;1.70;;
16480;SDS011;44634;54.110;12.138;2022-10-16T09:26:09;3.37;;;1.80;;
16480;SDS011;44634;54.110;12.138;2022-10-16T09:28:39;4.70;;;1.33;;
16480;SDS011;44634;54.110;12.138;2022-10-16T09:31:12;2.83;;;1.53;;
16480;SDS011;44634;54.110;12.138;2022-10-16T09:33:43;2.20;;;1.40;;
16480;SDS011;44634;54.110;12.138;2022-10-16T09:36:12;1.83;;;1.73;;
16480;SDS011;44634;54.110;12.138;2022-10-16T09:38:42;1.93;;;1.70;;
16480;SDS011;44634;54.110;12.138;2022-10-16T09:41:13;2.57;;;1.63;;
16480;SDS011;44634;54.110;12.138;2022-10-16T09:43:46;2.10;;;1.90;;
16480;SDS011;44634;54.110;12.138;2022-10-16T09:46:26;1.47;;;1.40;;
16480;SDS011;44634;54.110;12.138;2022-10-16T09:48:56;2.80;;;1.60;;
16480;SDS011;44634;54.110;12.138;2022-10-16T09:51:28;3.07;;;1.53;;
16480;SDS011;44634;54.110;12.138;2022-10-16T09:53:59;2.60;;;1.43;;
16480;SDS011;44634;54.110;12.138;2022-10-16T09:56:28;1.50;;;1.40;;
16480;SDS011;44634;54.110;12.138;2022-10-16T09:58:59;1.90;;;1.47;;
16480;SDS011;44634;54.110;12.138;2022-10-16T10:01:30;1.70;;;1.20;;
16480;SDS011;44634;54.110;12.138;2022-10-16T10:04:04;1.10;;;1.00;;
16480;SDS011;44634;54.110;12.138;2022-10-16T10:06:33;1.00;;;1.00;;
16480;SDS011;44634;54.110;12.138;2022-10-16T10:09:13;1.67;;;1.37;;
16480;SDS011;44634;54.110;12.138;2022-10-16T10:11:46;1.33;;;1.10;;
16480;SDS011;44634;54.110;12.138;2022-10-16T10:14:18;1.37;;;1.20;;
16480;SDS011;44634;54.110;12.138;2022-10-16T10:16:50;1.43;;;1.20;;
16480;SDS011;44634;54.110;12.138;2022-10-16T10:19:18;2.10;;;1.20;;
16480;SDS011;44634;54.110;12.138;2022-10-16T10:21:48;1.40;;;1.40;;
16480;SDS011;44634;54.110;12.138;2022-10-16T10:24:18;1.40;;;1.40;;
16480;SDS011;44634;54.110;12.138;2022-10-16T10:26:49;1.20;;;1.20;;
16480;SDS011;44634;54.110;12.138;2022-10-16T10:29:27;1.47;;;1.37;;
16480;SDS011;44634;54.110;12.138;2022-10-16T10:32:08;2.20;;;1.10;;
16480;SDS011;44634;54.110;12.138;2022-10-16T10:34:53;2.07;;;1.30;;
16480;SDS011;44634;54.110;12.138;2022-10-16T10:37:37;4.20;;;1.60;;
16480;SDS011;44634;54.110;12.138;2022-10-16T10:40:24;1.33;;;1.20;;
16480;SDS011;44634;54.110;12.138;2022-10-16T10:42:59;1.97;;;1.17;;
16480;SDS011;44634;54.110;12.138;2022-10-16T10:45:38;1.40;;;1.30;;
16480;SDS011;44634;54.110;12.138;2022-10-16T10:48:14;1.10;;;1.10;;
16480;SDS011;44634;54.110;12.138;2022-10-16T10:50:49;2.70;;;1.50;;
16480;SDS011;44634;54.110;12.138;2022-10-16T10:53:25;1.40;;;1.30;;
16480;SDS011;44634;54.110;12.138;2022-10-16T10:56:07;1.33;;;1.33;;
16480;SDS011;44634;54.110;12.138;2022-10-16T10:58:50;1.70;;;1.20;;
16480;SDS011;44634;54.110;12.138;2022-10-16T11:01:39;1.70;;;1.33;;
16480;SDS011;44634;54.110;12.138;2022-10-16T11:07:26;1.10;;;1.00;;
16480;SDS011;44634;54.110;12.138;2022-10-16T11:09:57;1.60;;;1.00;;
16480;SDS011;44634;54.110;12.138;2022-10-16T11:12:31;2.73;;;1.20;;
16480;SDS011;44634;54.110;12.138;2022-10-16T11:15:04;1.23;;;1.20;;
16480;SDS011;44634;54.110;12.138;2022-10-16T11:17:40;1.60;;;1.23;;
16480;SDS011;44634;54.110;12.138;2022-10-16T11:20:12;1.80;;;1.30;;
16480;SDS011;44634;54.110;12.138;2022-10-16T11:22:44;2.30;;;0.97;;
16480;SDS011;44634;54.110;12.138;2022-10-16T11:25:18;1.13;;;1.13;;
16480;SDS011;44634;54.110;12.138;2022-10-16T11:27:51;1.03;;;1.03;;
16480;SDS011;44634;54.110;12.138;2022-10-16T11:30:25;3.03;;;1.10;;
16480;SDS011;44634;54.110;12.138;2022-10-16T11:33:04;1.17;;;1.10;;
16480;SDS011;44634;54.110;12.138;2022-10-16T11:35:46;1.00;;;1.00;;
16480;SDS011;44634;54.110;12.138;2022-10-16T11:38:20;1.73;;;1.10;;
16480;SDS011;44634;54.110;12.138;2022-10-16T11:40:55;1.40;;;1.30;;
16480;SDS011;44634;54.110;12.138;2022-10-16T11:43:28;1.63;;;1.00;;
16480;SDS011;44634;54.110;12.138;2022-10-16T11:46:04;1.57;;;1.17;;
16480;SDS011;44634;54.110;12.138;2022-10-16T11:48:39;1.73;;;1.07;;
16480;SDS011;44634;54.110;12.138;2022-10-16T11:51:16;1.20;;;1.10;;
16480;SDS011;44634;54.110;12.138;2022-10-16T11:53:53;3.50;;;1.27;;
16480;SDS011;44634;54.110;12.138;2022-10-16T11:56:29;1.53;;;1.20;;
16480;SDS011;44634;54.110;12.138;2022-10-16T11:59:02;2.27;;;1.17;;
16480;SDS011;44634;54.110;12.138;2022-10-16T12:01:33;1.03;;;1.03;;
16480;SDS011;44634;54.110;12.138;2022-10-16T12:04:12;1.30;;;1.20;;
16480;SDS011;44634;54.110;12.138;2022-10-16T12:06:47;1.10;;;1.00;;
16480;SDS011;44634;54.110;12.138;2022-10-16T12:09:20;1.13;;;1.00;;
16480;SDS011;44634;54.110;12.138;2022-10-16T12:11:52;1.10;;;1.00;;
16480;SDS011;44634;54.110;12.138;2022-10-16T12:17:35;1.00;;;1.00;;
16480;SDS011;44634;54.110;12.138;2022-10-16T12:20:18;0.90;;;0.90;;
16480;SDS011;44634;54.110;12.138;2022-10-16T12:22:49;0.80;;;0.80;;
16480;SDS011;44634;54.110;12.138;2022-10-16T12:25:21;1.00;;;1.00;;
16480;SDS011;44634;54.110;12.138;2022-10-16T12:27:55;2.00;;;0.87;;
16480;SDS011;44634;54.110;12.138;2022-10-16T12:30:27;0.80;;;0.80;;
16480;SDS011;44634;54.110;12.138;2022-10-16T12:33:01;1.07;;;1.07;;
16480;SDS011;44634;54.110;12.138;2022-10-16T12:35:31;1.23;;;0.60;;
16480;SDS011;44634;54.110;12.138;2022-10-16T12:38:08;1.63;;;1.10;;
16480;SDS011;44634;54.110;12.138;2022-10-16T12:40:43;1.27;;;0.80;;
16480;SDS011;44634;54.110;12.138;2022-10-16T12:43:25;1.10;;;1.00;;
16480;SDS011;44634;54.110;12.138;2022-10-16T12:46:00;1.73;;;0.80;;
16480;SDS011;44634;54.110;12.138;2022-10-16T12:48:30;1.30;;;0.77;;
16480;SDS011;44634;54.110;12.138;2022-10-16T12:51:21;0.70;;;0.70;;
16480;SDS011;44634;54.110;12.138;2022-10-16T12:54:00;1.07;;;0.97;;
16480;SDS011;44634;54.110;12.138;2022-10-16T12:56:33;3.30;;;1.00;;
16480;SDS011;44634;54.110;12.138;2022-10-16T12:59:12;0.80;;;0.80;;
16480;SDS011;44634;54.110;12.138;2022-10-16T13:01:56;0.67;;;0.67;;
16480;SDS011;44634;54.110;12.138;2022-10-16T13:04:50;0.97;;;0.80;;
16480;SDS011;44634;54.110;12.138;2022-10-16T13:07:40;1.27;;;1.00;;
16480;SDS011;44634;54.110;12.138;2022-10-16T13:10:17;1.33;;;1.17;;
16480;SDS011;44634;54.110;12.138;2022-10-16T13:13:03;2.83;;;0.80;;
16480;SDS011;44634;54.110;12.138;2022-10-16T13:15:46;1.03;;;0.80;;
16480;SDS011;44634;54.110;12.138;2022-10-16T13:18:24;2.53;;;1.20;;
16480;SDS011;44634;54.110;12.138;2022-10-16T13:21:02;1.40;;;0.90;;
16480;SDS011;44634;54.110;12.138;2022-10-16T13:23:41;1.87;;;0.90;;
16480;SDS011;44634;54.110;12.138;2022-10-16T13:26:17;2.47;;;0.90;;
16480;SDS011;44634;54.110;12.138;2022-10-16T13:28:58;1.10;;;1.10;;
16480;SDS011;44634;54.110;12.138;2022-10-16T13:31:27;2.30;;;1.23;;
16480;SDS011;44634;54.110;12.138;2022-10-16T13:33:58;0.70;;;0.70;;
16480;SDS011;44634;54.110;12.138;2022-10-16T13:36:28;2.30;;;1.27;;
16480;SDS011;44634;54.110;12.138;2022-10-16T13:39:01;1.30;;;1.20;;
16480;SDS011;44634;54.110;12.138;2022-10-16T13:41:38;0.97;;;0.73;;
16480;SDS011;44634;54.110;12.138;2022-10-16T13:44:08;1.30;;;1.03;;
16480;SDS011;44634;54.110;12.138;2022-10-16T13:46:41;1.57;;;0.90;;
16480;SDS011;44634;54.110;12.138;2022-10-16T13:49:14;0.80;;;0.80;;
16480;SDS011;44634;54.110;12.138;2022-10-16T13:51:53;0.80;;;0.80;;
16480;SDS011;44634;54.110;12.138;2022-10-16T13:54:21;1.63;;;0.93;;
16480;SDS011;44634;54.110;12.138;2022-10-16T13:56:50;1.67;;;0.90;;
16480;SDS011;44634;54.110;12.138;2022-10-16T13:59:35;1.03;;;1.00;;
16480;SDS011;44634;54.110;12.138;2022-10-16T14:02:05;2.43;;;0.60;;
16480;SDS011;44634;54.110;12.138;2022-10-16T14:04:44;0.90;;;0.87;;
16480;SDS011;44634;54.110;12.138;2022-10-16T14:07:13;4.70;;;0.97;;
16480;SDS011;44634;54.110;12.138;2022-10-16T14:09:47;3.00;;;1.00;;
16480;SDS011;44634;54.110;12.138;2022-10-16T14:12:16;1.53;;;1.00;;
16480;SDS011;44634;54.110;12.138;2022-10-16T14:14:50;1.00;;;1.00;;
16480;SDS011;44634;54.110;12.138;2022-10-16T14:17:22;1.83;;;1.10;;
16480;SDS011;44634;54.110;12.138;2022-10-16T14:19:54;0.90;;;0.90;;
16480;SDS011;44634;54.110;12.138;2022-10-16T14:22:29;1.50;;;0.90;;
16480;SDS011;44634;54.110;12.138;2022-10-16T14:24:59;0.90;;;0.90;;
16480;SDS011;44634;54.110;12.138;2022-10-16T14:27:29;2.67;;;0.93;;
16480;SDS011;44634;54.110;12.138;2022-10-16T14:30:05;1.00;;;0.90;;
16480;SDS011;44634;54.110;12.138;2022-10-16T14:32:40;2.90;;;1.20;;
16480;SDS011;44634;54.110;12.138;2022-10-16T14:35:22;2.20;;;1.27;;
16480;SDS011;44634;54.110;12.138;2022-10-16T14:37:55;0.97;;;0.93;;
16480;SDS011;44634;54.110;12.138;2022-10-16T14:40:25;2.27;;;1.03;;
16480;SDS011;44634;54.110;12.138;2022-10-16T14:42:54;3.67;;;1.00;;
16480;SDS011;44634;54.110;12.138;2022-10-16T14:45:24;2.33;;;1.23;;
16480;SDS011;44634;54.110;12.138;2022-10-16T14:47:55;1.83;;;1.17;;
16480;SDS011;44634;54.110;12.138;2022-10-16T14:50:26;1.87;;;1.10;;
16480;SDS011;44634;54.110;12.138;2022-10-16T14:52:54;1.43;;;1.00;;
16480;SDS011;44634;54.110;12.138;2022-10-16T14:55:22;1.67;;;1.47;;
16480;SDS011;44634;54.110;12.138;2022-10-16T14:57:51;3.23;;;1.40;;
16480;SDS011;44634;54.110;12.138;2022-10-16T15:00:25;2.10;;;1.10;;
16480;SDS011;44634;54.110;12.138;2022-10-16T15:02:53;1.20;;;1.10;;
16480;SDS011;44634;54.110;12.138;2022-10-16T15:05:22;1.20;;;1.10;;
16480;SDS011;44634;54.110;12.138;2022-10-16T15:07:53;2.53;;;1.47;;